createdAt,value
2022-12-06T00:01:14.223Z,8.50
2022-12-06T00:03:43.797Z,10.60
2022-12-06T00:06:13.747Z,10.30
2022-12-06T00:08:42.173Z,9.43
2022-12-06T00:11:12.799Z,9.97
2022-12-06T00:13:41.628Z,9.13
2022-12-06T00:16:13.185Z,9.13
2022-12-06T00:18:42.611Z,7.87
2022-12-06T00:21:12.229Z,8.87
2022-12-06T00:23:41.815Z,8.67
2022-12-06T00:26:10.419Z,10.13
2022-12-06T00:28:39.253Z,7.43
2022-12-06T00:31:11.126Z,15.70
2022-12-06T00:33:39.259Z,15.93
2022-12-06T00:36:11.184Z,16.33
2022-12-06T00:38:39.097Z,11.87
2022-12-06T00:41:09.700Z,19.00
2022-12-06T00:43:38.455Z,22.93
2022-12-06T00:46:08.679Z,16.87
2022-12-06T00:48:37.900Z,14.37
2022-12-06T00:51:06.073Z,15.77
2022-12-06T00:53:34.097Z,16.00
2022-12-06T00:56:02.070Z,18.23
2022-12-06T00:58:29.945Z,12.80
2022-12-06T01:01:07.543Z,10.07
2022-12-06T01:03:37.236Z,11.43
2022-12-06T01:06:06.261Z,9.70
2022-12-06T01:08:35.061Z,9.00
2022-12-06T01:11:03.676Z,10.87
2022-12-06T01:13:31.954Z,8.80
2022-12-06T01:16:05.934Z,9.53
2022-12-06T01:18:33.834Z,10.03
2022-12-06T01:21:06.443Z,9.73
2022-12-06T01:23:35.132Z,9.53
2022-12-06T01:26:03.010Z,9.00
2022-12-06T01:28:30.902Z,8.53
2022-12-06T01:30:59.056Z,10.80
2022-12-06T01:33:27.489Z,10.13
2022-12-06T01:35:55.771Z,10.03
2022-12-06T01:38:24.995Z,9.40
2022-12-06T01:40:53.007Z,8.97
2022-12-06T01:43:33.155Z,7.90
2022-12-06T01:46:07.182Z,8.93
2022-12-06T01:48:36.563Z,11.40
2022-12-06T01:51:06.647Z,10.53
2022-12-06T01:53:37.391Z,10.23
2022-12-06T01:56:06.147Z,9.17
2022-12-06T01:58:38.012Z,9.17
2022-12-06T02:01:06.589Z,12.97
2022-12-06T02:03:34.937Z,9.07
2022-12-06T02:06:05.353Z,10.37
2022-12-06T02:08:33.856Z,8.40
2022-12-06T02:11:05.530Z,9.50
2022-12-06T02:13:36.620Z,9.77
2022-12-06T02:16:16.556Z,11.27
2022-12-06T02:18:50.888Z,10.27
2022-12-06T02:21:29.666Z,8.93
2022-12-06T02:24:24.838Z,10.27
2022-12-06T02:27:01.519Z,10.17
2022-12-06T02:29:50.032Z,9.90
2022-12-06T02:32:24.347Z,9.73
2022-12-06T02:34:57.421Z,9.57
2022-12-06T02:37:32.327Z,9.10
2022-12-06T02:40:04.531Z,8.80
2022-12-06T02:42:37.605Z,8.77
2022-12-06T02:45:11.701Z,9.10
2022-12-06T02:47:42.087Z,8.00
2022-12-06T02:50:13.734Z,8.47
2022-12-06T02:52:45.870Z,9.63
2022-12-06T02:55:14.576Z,8.13
2022-12-06T02:57:45.326Z,10.00
2022-12-06T03:00:41.132Z,10.30
2022-12-06T03:03:36.208Z,8.07
2022-12-06T03:06:31.297Z,9.87
2022-12-06T03:09:13.766Z,8.47
2022-12-06T03:11:52.416Z,9.90
2022-12-06T03:14:24.426Z,7.97
2022-12-06T03:17:02.869Z,9.33
2022-12-06T03:19:33.651Z,8.60
2022-12-06T03:22:07.440Z,8.47
2022-12-06T03:24:38.380Z,9.13
2022-12-06T03:27:10.526Z,8.40
2022-12-06T03:29:42.252Z,9.30
2022-12-06T03:32:14.660Z,8.13
2022-12-06T03:34:47.589Z,8.53
2022-12-06T03:37:20.002Z,8.30
2022-12-06T03:39:51.388Z,10.17
2022-12-06T03:42:20.194Z,8.13
2022-12-06T03:44:48.420Z,7.90
2022-12-06T03:47:37.727Z,9.07
2022-12-06T03:50:11.506Z,7.67
2022-12-06T03:52:39.864Z,9.30
2022-12-06T03:55:08.886Z,8.23
2022-12-06T03:57:36.843Z,9.87
2022-12-06T04:00:07.108Z,9.47
2022-12-06T04:02:39.338Z,9.60
2022-12-06T04:05:09.321Z,11.63
2022-12-06T04:07:37.236Z,8.83
2022-12-06T04:10:06.516Z,9.07
2022-12-06T04:12:53.867Z,8.67
2022-12-06T04:15:23.282Z,11.00
2022-12-06T04:18:09.121Z,8.40
2022-12-06T04:20:59.289Z,10.07
2022-12-06T04:23:28.104Z,8.57
2022-12-06T04:25:56.007Z,9.47
2022-12-06T04:28:41.768Z,9.17
2022-12-06T04:31:27.008Z,13.93
2022-12-06T04:34:12.168Z,8.07
2022-12-06T04:36:59.621Z,8.73
2022-12-06T04:39:27.585Z,8.00
2022-12-06T04:42:13.515Z,10.13
2022-12-06T04:44:41.413Z,9.27
2022-12-06T04:47:09.362Z,10.77
2022-12-06T04:49:38.759Z,9.77
2022-12-06T04:52:09.766Z,8.10
2022-12-06T04:54:38.221Z,8.43
2022-12-06T04:57:10.840Z,8.77
2022-12-06T04:59:39.952Z,8.03
2022-12-06T05:02:09.988Z,8.87
2022-12-06T05:04:37.947Z,17.00
2022-12-06T05:07:06.088Z,9.07
2022-12-06T05:09:35.413Z,8.70
2022-12-06T05:12:03.274Z,10.73
2022-12-06T05:14:31.399Z,11.90
2022-12-06T05:17:00.005Z,8.23
2022-12-06T05:19:28.393Z,7.57
2022-12-06T05:21:56.263Z,8.47
2022-12-06T05:24:24.141Z,10.20
2022-12-06T05:26:53.429Z,12.17
2022-12-06T05:29:21.270Z,10.63
2022-12-06T05:31:49.099Z,7.87
2022-12-06T05:34:17.053Z,10.73
2022-12-06T05:36:46.096Z,9.53
2022-12-06T05:39:14.052Z,8.00
2022-12-06T05:41:41.947Z,8.20
2022-12-06T05:44:12.119Z,9.97
2022-12-06T05:46:41.272Z,17.67
2022-12-06T05:49:09.162Z,10.10
2022-12-06T05:51:37.258Z,9.07
2022-12-06T05:54:06.699Z,11.47
2022-12-06T05:56:34.810Z,8.27
2022-12-06T05:59:03.412Z,7.77
2022-12-06T06:01:32.886Z,8.10
2022-12-06T06:04:01.772Z,8.80
2022-12-06T06:06:29.887Z,10.33
2022-12-06T06:08:57.793Z,9.47
2022-12-06T06:11:25.651Z,13.30
2022-12-06T06:13:54.456Z,18.67
2022-12-06T06:16:22.497Z,11.17
2022-12-06T06:18:51.867Z,8.20
2022-12-06T06:21:19.733Z,9.70
2022-12-06T06:23:47.512Z,12.87
2022-12-06T06:26:15.376Z,11.30
2022-12-06T06:28:43.215Z,9.43
2022-12-06T06:31:11.146Z,10.10
2022-12-06T06:33:39.040Z,8.97
2022-12-06T06:36:09.146Z,9.90
2022-12-06T06:38:37.047Z,9.10
2022-12-06T06:41:06.021Z,8.43
2022-12-06T06:43:33.887Z,8.93
2022-12-06T06:46:03.629Z,7.80
2022-12-06T06:48:34.285Z,11.00
2022-12-06T06:51:04.242Z,9.27
2022-12-06T06:53:33.851Z,7.37
2022-12-06T06:56:02.655Z,8.87
2022-12-06T06:58:30.497Z,10.73
2022-12-06T07:01:01.209Z,10.63
2022-12-06T07:03:30.283Z,9.07
2022-12-06T07:06:00.673Z,10.13
2022-12-06T07:08:29.848Z,10.17
2022-12-06T07:10:59.611Z,9.50
2022-12-06T07:13:29.050Z,8.27
2022-12-06T07:15:58.417Z,14.93
2022-12-06T07:18:27.137Z,17.77
2022-12-06T07:21:01.356Z,13.90
2022-12-06T07:23:29.255Z,12.00
2022-12-06T07:26:06.227Z,10.77
2022-12-06T07:28:36.441Z,11.00
2022-12-06T07:31:09.577Z,12.10
2022-12-06T07:33:38.399Z,11.33
2022-12-06T07:36:14.567Z,9.53
2022-12-06T07:38:43.705Z,9.43
2022-12-06T07:41:32.156Z,9.73
2022-12-06T07:44:19.375Z,9.67
2022-12-06T07:46:48.001Z,12.83
2022-12-06T07:49:16.939Z,12.63
2022-12-06T07:51:45.410Z,10.63
2022-12-06T07:54:13.889Z,10.67
2022-12-06T07:56:43.898Z,8.77
2022-12-06T07:59:11.839Z,12.50
2022-12-06T08:01:40.157Z,15.07
2022-12-06T08:04:08.867Z,10.27
2022-12-06T08:06:37.160Z,10.03
2022-12-06T08:09:05.296Z,10.10
2022-12-06T08:11:33.357Z,8.10
2022-12-06T08:14:02.757Z,9.93
2022-12-06T08:16:30.702Z,9.97
2022-12-06T08:18:58.657Z,12.07
2022-12-06T08:21:26.949Z,9.90
2022-12-06T08:23:55.835Z,27.47
2022-12-06T08:26:24.545Z,26.10
2022-12-06T08:28:52.658Z,16.93
2022-12-06T08:31:23.600Z,14.70
2022-12-06T08:33:51.747Z,14.40
2022-12-06T08:36:21.122Z,21.40
2022-12-06T08:38:50.272Z,10.50
2022-12-06T08:41:35.731Z,12.13
2022-12-06T08:44:04.840Z,22.33
2022-12-06T08:46:35.374Z,11.17
2022-12-06T08:49:03.597Z,16.47
2022-12-06T08:51:32.485Z,18.27
2022-12-06T08:54:00.345Z,13.20
2022-12-06T08:56:29.027Z,10.97
2022-12-06T08:58:57.712Z,14.63
2022-12-06T09:01:32.537Z,13.00
2022-12-06T09:04:06.860Z,14.13
2022-12-06T09:06:34.991Z,14.33
2022-12-06T09:09:02.925Z,14.40
2022-12-06T09:11:30.865Z,14.77
2022-12-06T09:13:59.163Z,12.43
2022-12-06T09:16:27.206Z,14.03
2022-12-06T09:18:55.179Z,14.80
2022-12-06T09:21:26.476Z,18.60
2022-12-06T09:23:56.579Z,21.23
2022-12-06T09:26:25.103Z,17.30
2022-12-06T09:28:54.723Z,17.13
2022-12-06T09:31:23.302Z,12.47
2022-12-06T09:33:51.489Z,11.97
2022-12-06T09:36:23.615Z,12.07
2022-12-06T09:38:58.263Z,11.93
2022-12-06T09:42:19.137Z,16.80
2022-12-06T09:45:09.131Z,17.27
2022-12-06T09:47:50.519Z,16.37
2022-12-06T09:50:31.099Z,16.27
2022-12-06T09:53:15.833Z,15.90
2022-12-06T09:56:03.841Z,14.77
2022-12-06T09:58:47.126Z,18.37
2022-12-06T10:01:23.638Z,12.93
2022-12-06T10:04:03.560Z,14.27
2022-12-06T10:06:39.741Z,13.60
2022-12-06T10:09:25.482Z,14.20
2022-12-06T10:12:15.153Z,14.43
2022-12-06T10:15:17.119Z,16.93
2022-12-06T10:17:59.079Z,16.47
2022-12-06T10:20:35.921Z,19.57
2022-12-06T10:23:18.774Z,19.17
2022-12-06T10:25:55.596Z,22.77
2022-12-06T10:28:35.729Z,21.37
2022-12-06T10:31:14.267Z,20.27
2022-12-06T10:33:53.679Z,23.43
2022-12-06T10:36:34.371Z,23.13
2022-12-06T10:39:10.860Z,25.53
2022-12-06T10:41:44.612Z,25.47
2022-12-06T10:44:21.287Z,18.90
2022-12-06T10:47:06.307Z,22.67
2022-12-06T10:49:45.203Z,19.70
2022-12-06T10:52:26.879Z,17.57
2022-12-06T10:55:03.804Z,22.43
2022-12-06T10:57:37.644Z,18.27
2022-12-06T11:00:15.795Z,22.30
2022-12-06T11:02:53.477Z,21.07
2022-12-06T11:05:25.631Z,35.00
2022-12-06T11:08:00.403Z,26.27
2022-12-06T11:10:32.902Z,20.87
2022-12-06T11:13:10.708Z,22.87
2022-12-06T11:15:49.117Z,23.60
2022-12-06T11:18:19.559Z,21.23
2022-12-06T11:20:50.923Z,23.87
2022-12-06T11:23:26.880Z,23.33
2022-12-06T11:26:07.707Z,20.07
2022-12-06T11:28:38.898Z,21.00
2022-12-06T11:31:19.114Z,23.43
2022-12-06T11:33:47.546Z,20.53
2022-12-06T11:36:16.305Z,20.50
2022-12-06T11:38:45.950Z,20.23
2022-12-06T11:41:22.333Z,18.30
2022-12-06T11:43:51.371Z,22.13
2022-12-06T11:46:22.111Z,19.93
2022-12-06T11:48:50.150Z,22.20
2022-12-06T11:51:21.058Z,19.70
2022-12-06T11:54:07.704Z,21.80
2022-12-06T11:56:39.182Z,25.57
2022-12-06T11:59:20.487Z,21.80
2022-12-06T12:01:51.616Z,26.77
2022-12-06T12:04:35.693Z,17.90
2022-12-06T12:07:07.021Z,16.17
2022-12-06T12:09:38.061Z,20.73
2022-12-06T12:12:14.068Z,28.40
2022-12-06T12:14:47.922Z,24.67
2022-12-06T12:17:24.005Z,21.37
2022-12-06T12:19:58.272Z,24.57
2022-12-06T12:22:36.697Z,21.77
2022-12-06T12:25:23.593Z,20.53
2022-12-06T12:27:53.652Z,18.20
2022-12-06T12:30:27.886Z,20.17
2022-12-06T12:33:17.512Z,18.90
2022-12-06T12:35:47.445Z,22.27
2022-12-06T12:38:21.232Z,19.00
2022-12-06T12:40:52.329Z,21.40
2022-12-06T12:43:23.213Z,13.67
2022-12-06T12:46:16.995Z,13.30
2022-12-06T12:48:48.030Z,10.67
2022-12-06T12:51:34.455Z,13.70
2022-12-06T12:54:05.354Z,10.57
2022-12-06T12:58:05.925Z,10.13
2022-12-06T13:00:38.553Z,10.50
2022-12-06T13:03:34.836Z,10.47
2022-12-06T13:06:01.524Z,8.53
2022-12-06T13:08:34.595Z,7.30
2022-12-06T13:11:05.204Z,8.53
2022-12-06T13:13:36.834Z,10.30
2022-12-06T13:16:11.698Z,7.07
2022-12-06T13:18:43.984Z,10.43
2022-12-06T13:21:20.600Z,8.07
2022-12-06T13:23:51.110Z,8.07
2022-12-06T13:26:26.743Z,6.43
2022-12-06T13:28:57.498Z,7.77
2022-12-06T13:31:31.231Z,8.10
2022-12-06T13:34:03.536Z,10.03
2022-12-06T13:36:34.818Z,8.00
2022-12-06T13:39:33.557Z,7.33
2022-12-06T13:42:20.242Z,7.80
2022-12-06T13:44:59.732Z,12.43
2022-12-06T13:47:53.334Z,7.73
2022-12-06T13:50:51.710Z,6.83
2022-12-06T13:53:22.079Z,6.70
2022-12-06T13:55:57.697Z,8.67
2022-12-06T13:58:43.138Z,9.27
2022-12-06T14:01:40.359Z,9.83
2022-12-06T14:04:39.425Z,7.77
2022-12-06T14:09:43.550Z,5.03
2022-12-06T14:12:18.959Z,5.17
2022-12-06T14:14:57.364Z,13.83
2022-12-06T14:18:00.287Z,5.93
2022-12-06T14:20:21.859Z,8.03
2022-12-06T14:22:49.926Z,7.33
2022-12-06T14:25:22.287Z,7.30
2022-12-06T14:27:53.034Z,8.73
2022-12-06T14:30:26.028Z,7.70
2022-12-06T14:32:56.095Z,9.87
2022-12-06T14:35:26.513Z,11.53
2022-12-06T14:37:56.690Z,11.27
2022-12-06T14:40:45.732Z,10.87
2022-12-06T14:43:17.327Z,9.67
2022-12-06T14:45:46.723Z,13.40
2022-12-06T14:48:14.903Z,11.03
2022-12-06T14:50:45.302Z,8.90
2022-12-06T14:53:15.368Z,11.43
2022-12-06T14:55:56.636Z,9.67
2022-12-06T14:58:27.085Z,11.20
2022-12-06T15:00:57.276Z,13.47
2022-12-06T15:03:29.132Z,8.50
2022-12-06T15:06:19.062Z,11.30
2022-12-06T15:08:53.632Z,11.47
2022-12-06T15:11:49.184Z,11.13
2022-12-06T15:14:19.522Z,11.80
2022-12-06T15:16:57.884Z,14.63
2022-12-06T15:19:25.806Z,10.53
2022-12-06T15:21:53.629Z,8.97
2022-12-06T15:24:23.309Z,14.63
2022-12-06T15:26:53.180Z,13.03
2022-12-06T15:29:21.085Z,27.53
2022-12-06T15:31:53.195Z,8.60
2022-12-06T15:34:27.616Z,12.83
2022-12-06T15:37:29.863Z,8.87
2022-12-06T15:39:44.954Z,6.37
2022-12-06T15:42:18.892Z,8.77
2022-12-06T15:44:49.431Z,7.53
2022-12-06T15:47:18.371Z,5.30
2022-12-06T15:49:46.461Z,15.13
2022-12-06T15:52:17.582Z,9.67
2022-12-06T15:54:46.062Z,11.97
2022-12-06T15:57:15.297Z,14.63
2022-12-06T15:59:43.108Z,7.97
2022-12-06T16:02:15.357Z,8.20
2022-12-06T16:04:43.910Z,8.63
2022-12-06T16:07:18.374Z,12.50
2022-12-06T16:09:46.249Z,10.27
2022-12-06T16:12:15.715Z,12.90
2022-12-06T16:14:43.810Z,12.67
2022-12-06T16:17:11.907Z,14.13
2022-12-06T16:19:57.193Z,9.80
2022-12-06T16:22:45.191Z,12.10
2022-12-06T16:25:11.872Z,12.20
2022-12-06T16:27:40.900Z,8.73
2022-12-06T16:30:10.192Z,7.37
2022-12-06T16:32:37.994Z,7.30
2022-12-06T16:35:06.157Z,7.93
2022-12-06T16:37:33.977Z,6.73
2022-12-06T16:40:01.803Z,28.87
2022-12-06T16:42:29.669Z,7.90
2022-12-06T16:44:59.239Z,9.00
2022-12-06T16:49:53.841Z,10.87
2022-12-06T16:52:21.556Z,13.07
2022-12-06T16:54:49.342Z,11.80
2022-12-06T16:57:19.398Z,13.30
2022-12-06T16:59:47.257Z,14.90
2022-12-06T17:02:26.851Z,8.60
2022-12-06T17:04:55.385Z,8.47
2022-12-06T17:07:23.153Z,10.57
2022-12-06T17:09:50.952Z,12.30
2022-12-06T17:12:18.762Z,12.70
2022-12-06T17:14:46.789Z,10.90
2022-12-06T17:17:15.224Z,12.80
2022-12-06T17:19:45.462Z,18.00
2022-12-06T17:22:16.280Z,16.60
2022-12-06T17:24:44.139Z,14.83
2022-12-06T17:27:14.457Z,7.17
2022-12-06T17:29:42.762Z,7.30
2022-12-06T17:32:11.399Z,7.30
2022-12-06T17:34:39.331Z,7.53
2022-12-06T17:37:08.694Z,8.97
2022-12-06T17:39:36.470Z,7.33
2022-12-06T17:42:21.631Z,10.27
2022-12-06T17:44:50.619Z,7.50
2022-12-06T17:47:18.522Z,8.43
2022-12-06T17:49:46.336Z,8.63
2022-12-06T17:52:16.117Z,7.40
2022-12-06T17:54:44.448Z,7.73
2022-12-06T17:57:16.189Z,17.67
2022-12-06T17:59:44.844Z,13.60
2022-12-06T18:02:15.931Z,12.47
2022-12-06T18:04:44.825Z,14.03
2022-12-06T18:07:13.301Z,36.70
2022-12-06T18:09:42.529Z,43.27
2022-12-06T18:12:11.265Z,15.00
2022-12-06T18:14:39.111Z,22.53
2022-12-06T18:17:07.184Z,29.33
2022-12-06T18:19:35.814Z,15.03
2022-12-06T18:22:04.109Z,11.67
2022-12-06T18:24:35.890Z,10.10
2022-12-06T18:27:05.928Z,10.37
2022-12-06T18:29:34.301Z,15.57
2022-12-06T18:32:02.284Z,16.20
2022-12-06T18:34:30.357Z,30.57
2022-12-06T18:36:58.153Z,11.07
2022-12-06T18:39:26.498Z,10.00
2022-12-06T18:41:55.542Z,8.47
2022-12-06T18:44:25.586Z,13.40
2022-12-06T18:46:53.608Z,13.83
2022-12-06T18:49:21.470Z,12.83
2022-12-06T18:51:49.302Z,15.87
2022-12-06T18:54:17.161Z,7.80
2022-12-06T18:56:45.035Z,7.57
2022-12-06T18:59:13.178Z,7.97
2022-12-06T19:01:42.996Z,7.33
2022-12-06T19:04:14.626Z,8.60
2022-12-06T19:06:44.648Z,7.73
2022-12-06T19:09:15.445Z,7.40
2022-12-06T19:11:45.897Z,10.67
2022-12-06T19:14:14.725Z,8.20
2022-12-06T19:16:45.932Z,7.23
2022-12-06T19:19:17.155Z,8.50
2022-12-06T19:21:45.658Z,10.43
2022-12-06T19:24:15.556Z,9.43
2022-12-06T19:26:43.890Z,7.33
2022-12-06T19:29:11.755Z,7.53
2022-12-06T19:31:39.599Z,8.30
2022-12-06T19:34:14.993Z,7.67
2022-12-06T19:36:43.201Z,9.73
2022-12-06T19:39:11.917Z,8.10
2022-12-06T19:41:53.683Z,9.50
2022-12-06T19:44:21.669Z,8.33
2022-12-06T19:46:49.584Z,7.37
2022-12-06T19:49:20.971Z,6.57
2022-12-06T19:51:49.877Z,12.20
2022-12-06T19:54:22.015Z,7.20
2022-12-06T19:56:50.390Z,8.67
2022-12-06T19:59:18.247Z,18.90
2022-12-06T20:01:47.781Z,7.53
2022-12-06T20:04:16.820Z,9.20
2022-12-06T20:06:46.484Z,7.33
2022-12-06T20:09:14.577Z,6.60
2022-12-06T20:12:00.672Z,9.43
2022-12-06T20:14:29.898Z,9.53
2022-12-06T20:16:57.977Z,9.33
2022-12-06T20:19:25.871Z,8.57
2022-12-06T20:21:55.046Z,11.23
2022-12-06T20:24:23.952Z,7.93
2022-12-06T20:26:54.197Z,8.43
2022-12-06T20:29:22.595Z,9.47
2022-12-06T20:31:51.610Z,7.70
2022-12-06T20:34:20.210Z,11.00
2022-12-06T20:36:48.291Z,8.53
2022-12-06T20:39:21.678Z,17.30
2022-12-06T20:41:50.609Z,12.50
2022-12-06T20:44:19.825Z,10.63
2022-12-06T20:46:49.939Z,11.90
2022-12-06T20:49:18.452Z,15.43
2022-12-06T20:51:52.428Z,11.07
2022-12-06T20:54:22.595Z,15.60
2022-12-06T20:56:53.120Z,11.30
2022-12-06T20:59:21.612Z,12.17
2022-12-06T21:01:49.571Z,11.50
2022-12-06T21:04:18.225Z,12.27
2022-12-06T21:06:46.154Z,10.97
2022-12-06T21:09:14.128Z,13.83
2022-12-06T21:11:43.319Z,13.13
2022-12-06T21:14:13.965Z,12.70
2022-12-06T21:16:43.147Z,13.60
2022-12-06T21:19:14.125Z,18.60
2022-12-06T21:21:45.052Z,12.73
2022-12-06T21:24:15.378Z,10.97
2022-12-06T21:26:44.592Z,14.67
2022-12-06T21:29:16.858Z,21.67
2022-12-06T21:31:45.217Z,10.70
2022-12-06T21:34:13.408Z,11.47
2022-12-06T21:36:41.951Z,9.03
2022-12-06T21:39:11.099Z,7.63
2022-12-06T21:41:39.758Z,9.63
2022-12-06T21:44:09.005Z,11.13
2022-12-06T21:46:36.899Z,11.40
2022-12-06T21:49:04.898Z,11.13
2022-12-06T21:51:33.158Z,15.33
2022-12-06T21:54:01.540Z,17.90
2022-12-06T21:56:32.784Z,16.93
2022-12-06T21:59:01.390Z,24.57
2022-12-06T22:01:32.239Z,27.93
2022-12-06T22:04:02.214Z,21.63
2022-12-06T22:06:31.435Z,15.90
2022-12-06T22:09:01.176Z,23.70
2022-12-06T22:11:30.161Z,20.17
2022-12-06T22:14:00.803Z,14.80
2022-12-06T22:16:30.258Z,11.37
2022-12-06T22:18:58.781Z,12.83
2022-12-06T22:21:28.851Z,10.63
2022-12-06T22:23:57.972Z,13.43
2022-12-06T22:26:28.607Z,13.80
2022-12-06T22:28:56.904Z,11.97
2022-12-06T22:31:26.754Z,11.20
2022-12-06T22:33:57.400Z,11.83
2022-12-06T22:36:25.651Z,12.93
2022-12-06T22:38:55.292Z,11.33
2022-12-06T22:41:24.187Z,12.33
2022-12-06T22:43:53.173Z,12.27
2022-12-06T22:46:21.747Z,12.63
2022-12-06T22:48:50.424Z,10.30
2022-12-06T22:51:22.330Z,16.33
2022-12-06T22:53:54.155Z,13.13
2022-12-06T22:56:22.074Z,12.10
2022-12-06T22:58:50.316Z,18.17
2022-12-06T23:01:21.026Z,14.73
2022-12-06T23:03:51.026Z,12.47
2022-12-06T23:06:22.594Z,13.33
2022-12-06T23:08:50.746Z,14.07
2022-12-06T23:11:20.965Z,13.87
2022-12-06T23:13:49.155Z,13.70
2022-12-06T23:16:18.919Z,13.20
2022-12-06T23:18:47.393Z,13.23
2022-12-06T23:21:17.679Z,14.93
2022-12-06T23:23:49.686Z,18.27
2022-12-06T23:26:19.907Z,13.60
2022-12-06T23:28:48.272Z,15.63
2022-12-06T23:31:18.930Z,17.67
2022-12-06T23:33:47.625Z,15.23
2022-12-06T23:36:17.326Z,13.70
2022-12-06T23:38:46.852Z,14.37
2022-12-06T23:41:17.063Z,12.67
2022-12-06T23:43:45.289Z,12.73
2022-12-06T23:46:22.146Z,15.73
2022-12-06T23:48:50.787Z,16.30
2022-12-06T23:51:21.645Z,14.20
2022-12-06T23:53:53.412Z,13.87
2022-12-06T23:56:22.488Z,12.80
2022-12-06T23:58:51.336Z,13.30
